Time;durP1;ratioP1;P1;durP2;ratioP2;P2;SDS_P1;SDS_P2;PMS_P1;PMS_P2;Temp;Humidity;BMP_temperature;BMP_pressure;BME280_temperature;BME280_humidity;BME280_pressure;Samples;Min_cycle;Max_cycle;Signal;HPM_P1;HPM_P2
2023/06/13 00:02:23;;;;;;;3.90;2.60;;;14.30;99.90;13.70;100944;;;;579715;243;24080;-79
2023/06/13 00:04:51;;;;;;;6.03;2.80;;;14.30;99.90;13.60;100944;;;;579564;244;24062;-79
2023/06/13 00:07:19;;;;;;;6.03;2.53;;;14.30;99.90;13.60;100939;;;;579465;244;24149;-78
2023/06/13 00:09:47;;;;;;;7.07;3.20;;;14.20;99.90;13.50;100941;;;;579259;244;24043;-78
2023/06/13 00:12:14;;;;;;;14.37;3.57;;;14.20;99.90;13.50;100938;;;;579175;244;24116;-79
2023/06/13 00:14:43;;;;;;;6.93;2.97;;;14.10;99.90;13.40;100940;;;;579169;244;24072;-77
2023/06/13 00:17:11;;;;;;;8.13;2.90;;;14.00;99.90;13.40;100941;;;;578983;244;24157;-77
2023/06/13 00:19:39;;;;;;;7.97;2.40;;;14.00;99.90;13.30;100935;;;;578881;244;24066;-78
2023/06/13 00:22:09;;;;;;;4.63;3.73;;;13.90;99.90;13.30;100933;;;;579015;244;24072;-78
2023/06/13 00:24:36;;;;;;;4.67;3.10;;;13.90;99.90;13.30;100939;;;;578962;244;24137;-79
2023/06/13 00:27:03;;;;;;;6.33;2.63;;;13.90;99.90;13.20;100940;;;;579051;244;24135;-78
2023/06/13 00:29:31;;;;;;;7.43;3.23;;;13.90;99.90;13.20;100944;;;;578950;244;24086;-80
2023/06/13 00:31:59;;;;;;;4.37;3.10;;;13.80;99.90;13.20;100942;;;;578895;244;24119;-79
2023/06/13 00:34:26;;;;;;;4.83;2.97;;;13.80;99.90;13.20;100946;;;;579355;244;24096;-78
2023/06/13 00:36:55;;;;;;;8.37;2.87;;;13.80;99.90;13.10;100955;;;;579041;244;24045;-77
2023/06/13 00:39:23;;;;;;;3.40;2.33;;;13.80;99.90;13.10;100951;;;;579130;244;24053;-78
2023/06/13 00:41:51;;;;;;;6.97;3.13;;;13.70;99.90;13.10;100945;;;;579063;244;24090;-79
2023/06/13 00:44:19;;;;;;;8.77;3.00;;;13.70;99.90;13.10;100936;;;;579104;244;24082;-78
2023/06/13 00:46:47;;;;;;;3.70;2.67;;;13.80;99.90;13.10;100944;;;;579112;244;24081;-81
2023/06/13 00:49:15;;;;;;;5.00;2.87;;;13.70;99.90;13.10;100941;;;;578656;244;24058;-80
2023/06/13 00:51:44;;;;;;;4.10;2.57;;;13.70;99.90;13.00;100937;;;;578519;244;24096;-78
2023/06/13 00:54:13;;;;;;;3.67;2.40;;;13.70;99.90;13.00;100944;;;;578741;244;24102;-78
2023/06/13 00:56:40;;;;;;;5.00;3.60;;;13.60;99.90;12.90;100937;;;;578450;244;24108;-79
2023/06/13 00:59:08;;;;;;;6.93;2.78;;;13.50;99.90;12.90;100945;;;;573720;244;35154;-78
2023/06/13 01:01:40;;;;;;;5.60;3.50;;;13.50;99.90;12.80;100933;;;;578792;244;24069;-76
2023/06/13 01:04:05;;;;;;;4.07;2.73;;;13.40;99.90;12.70;100938;;;;578950;244;24100;-77
2023/06/13 01:06:33;;;;;;;3.67;2.90;;;13.40;99.90;12.60;100939;;;;579179;244;24073;-80
2023/06/13 01:09:02;;;;;;;4.17;2.53;;;13.30;99.90;12.60;100935;;;;579070;244;24178;-80
2023/06/13 01:11:41;;;;;;;5.23;2.53;;;13.20;99.90;12.50;100926;;;;580222;243;24075;-78
2023/06/13 01:14:09;;;;;;;3.57;2.40;;;13.20;99.90;12.50;100926;;;;579965;243;24086;-78
2023/06/13 01:16:40;;;;;;;4.90;2.27;;;13.10;99.90;12.50;100925;;;;579118;244;24055;-81
2023/06/13 01:19:11;;;;;;;13.07;2.93;;;13.10;99.90;12.40;100929;;;;579018;244;24123;-78
2023/06/13 01:21:39;;;;;;;3.97;2.40;;;13.10;99.90;12.40;100924;;;;577728;244;24042;-78
2023/06/13 01:24:15;;;;;;;2.43;2.10;;;13.10;99.90;12.40;100930;;;;578990;244;24061;-78
2023/06/13 01:26:56;;;;;;;11.13;2.70;;;13.10;99.90;12.40;100929;;;;578543;244;24049;-78
2023/06/13 01:29:23;;;;;;;3.53;2.73;;;13.00;99.90;12.30;100917;;;;579336;244;24043;-78
2023/06/13 01:31:51;;;;;;;3.87;2.50;;;13.00;99.90;12.20;100924;;;;578852;244;24061;-78
2023/06/13 01:34:18;;;;;;;7.40;3.00;;;12.90;99.90;12.10;100919;;;;578729;244;24096;-79
2023/06/13 01:36:46;;;;;;;5.83;2.67;;;12.80;99.90;12.10;100915;;;;579307;244;24071;-79
2023/06/13 01:39:15;;;;;;;7.13;2.90;;;12.80;99.90;12.10;100919;;;;579287;244;24122;-79
2023/06/13 01:41:43;;;;;;;3.93;2.43;;;12.70;99.90;12.10;100925;;;;579232;244;24039;-78
2023/06/13 01:44:11;;;;;;;5.93;2.60;;;12.80;99.90;12.20;100922;;;;579262;244;24105;-76
2023/06/13 01:46:45;;;;;;;10.07;3.17;;;12.80;99.90;12.20;100917;;;;578530;244;24124;-77
2023/06/13 01:49:40;;;;;;;7.97;3.10;;;12.80;99.90;12.20;100919;;;;577611;244;24050;-79
2023/06/13 01:52:10;;;;;;;7.50;3.20;;;12.90;99.90;12.30;100923;;;;570657;243;25183;-78
2023/06/13 01:54:38;;;;;;;8.60;2.80;;;12.90;99.90;12.30;100916;;;;577771;244;24074;-78
2023/06/13 01:57:06;;;;;;;9.83;2.40;;;12.90;99.90;12.30;100919;;;;578169;244;24061;-78
2023/06/13 01:59:37;;;;;;;7.27;2.73;;;13.00;99.90;12.30;100908;;;;578553;244;24098;-78
2023/06/13 02:02:05;;;;;;;6.53;2.43;;;13.00;99.90;12.30;100908;;;;578489;244;24107;-78
2023/06/13 02:04:30;;;;;;;9.23;2.63;;;13.00;99.90;12.30;100912;;;;578822;244;24139;-79
2023/06/13 02:06:58;;;;;;;3.33;2.20;;;13.00;99.90;12.30;100908;;;;579049;244;24037;-78
2023/06/13 02:09:27;;;;;;;4.50;2.27;;;13.00;99.90;12.30;100899;;;;579086;244;24045;-79
2023/06/13 02:11:55;;;;;;;5.17;2.37;;;13.00;99.90;12.30;100898;;;;579076;244;24091;-78
2023/06/13 02:14:23;;;;;;;9.33;2.77;;;13.00;99.90;12.40;100894;;;;579034;244;24084;-78
2023/06/13 02:16:51;;;;;;;3.43;2.47;;;13.00;99.90;12.40;100902;;;;579122;244;24145;-78
2023/06/13 02:19:18;;;;;;;5.20;2.70;;;13.00;99.90;12.40;100904;;;;579019;244;24247;-79
2023/06/13 02:21:46;;;;;;;2.77;2.20;;;13.00;99.90;12.40;100903;;;;578989;242;24105;-77
2023/06/13 02:24:18;;;;;;;8.33;2.93;;;13.10;99.90;12.40;100906;;;;580026;243;24079;-77
2023/06/13 02:26:42;;;;;;;5.97;2.00;;;13.00;99.90;12.30;100907;;;;579465;244;24111;-78
2023/06/13 02:29:10;;;;;;;5.53;2.57;;;13.00;99.90;12.30;100902;;;;579562;244;24061;-78
2023/06/13 02:31:38;;;;;;;8.60;1.97;;;12.90;99.90;12.20;100910;;;;579703;244;24064;-78
2023/06/13 02:34:06;;;;;;;3.80;2.40;;;12.80;99.90;12.10;100910;;;;579147;244;24074;-78
2023/06/13 02:36:36;;;;;;;11.00;3.27;;;12.80;99.90;12.00;100914;;;;579457;244;24050;-77
2023/06/13 02:39:04;;;;;;;6.83;2.80;;;12.70;99.90;12.00;100911;;;;579529;244;24061;-78
2023/06/13 02:41:33;;;;;;;3.10;2.33;;;12.60;99.90;11.90;100912;;;;579292;244;24106;-78
2023/06/13 02:44:00;;;;;;;3.57;2.67;;;12.60;99.90;11.90;100906;;;;579333;244;24045;-77
2023/06/13 02:46:28;;;;;;;4.33;2.90;;;12.60;99.90;11.90;100905;;;;579307;244;24053;-77
2023/06/13 02:48:56;;;;;;;6.50;3.03;;;12.60;99.90;12.00;100900;;;;579314;244;24066;-78
2023/06/13 02:51:24;;;;;;;4.07;2.60;;;12.60;99.90;12.00;100903;;;;579284;244;24116;-77
2023/06/13 02:53:52;;;;;;;8.97;3.37;;;12.60;99.90;12.10;100898;;;;578884;244;24066;-78
2023/06/13 02:56:20;;;;;;;5.73;3.10;;;12.70;99.90;12.10;100889;;;;578956;244;24160;-78
2023/06/13 02:58:49;;;;;;;3.93;2.87;;;12.80;99.90;12.10;100891;;;;578718;244;24096;-78
2023/06/13 03:01:20;;;;;;;5.37;2.10;;;12.80;99.90;12.10;100888;;;;578782;244;24046;-78
2023/06/13 03:03:47;;;;;;;5.00;2.67;;;12.70;99.90;12.10;100888;;;;578355;244;24068;-78
2023/06/13 03:06:17;;;;;;;3.67;2.93;;;12.80;99.90;12.10;100891;;;;578531;244;24110;-78
2023/06/13 03:08:41;;;;;;;6.07;3.13;;;12.70;99.90;12.00;100891;;;;578770;244;24050;-78
2023/06/13 03:11:09;;;;;;;4.37;2.93;;;12.70;99.90;12.00;100877;;;;578980;244;24068;-78
2023/06/13 03:13:38;;;;;;;4.50;2.23;;;12.70;99.90;12.00;100881;;;;579076;244;24132;-78
2023/06/13 03:16:06;;;;;;;15.87;3.10;;;12.60;99.90;12.00;100883;;;;579010;244;24171;-78
2023/06/13 03:18:34;;;;;;;5.27;2.97;;;12.60;99.90;12.00;100886;;;;579032;244;24065;-79
2023/06/13 03:21:01;;;;;;;5.47;2.90;;;12.60;99.90;12.10;100877;;;;579040;244;24116;-77
2023/06/13 03:23:29;;;;;;;5.90;3.00;;;12.60;99.90;12.10;100870;;;;578649;244;24049;-80
2023/06/13 03:26:01;;;;;;;6.10;3.13;;;12.70;99.90;12.20;100875;;;;578756;244;24112;-78
2023/06/13 03:28:25;;;;;;;2.80;2.30;;;12.80;99.90;12.60;100875;;;;578384;244;24056;-79
2023/06/13 03:30:55;;;;;;;5.00;1.93;;;13.10;99.90;13.10;100883;;;;578777;244;24103;-78
2023/06/13 03:33:22;;;;;;;9.53;3.00;;;13.60;99.90;13.60;100879;;;;578898;242;24051;-77
2023/06/13 03:35:50;;;;;;;2.43;2.23;;;14.00;99.90;14.10;100894;;;;580022;243;24068;-78
2023/06/13 03:38:17;;;;;;;2.07;1.87;;;14.50;99.90;14.80;100894;;;;580038;244;24153;-78
2023/06/13 03:40:45;;;;;;;4.87;2.37;;;15.20;99.90;15.50;100889;;;;579838;244;24072;-79
2023/06/13 03:43:13;;;;;;;3.50;2.17;;;15.90;99.90;16.10;100892;;;;579717;244;24061;-79
2023/06/13 03:45:41;;;;;;;7.10;2.73;;;17.30;99.90;16.90;100891;;;;579553;244;24070;-78
2023/06/13 03:48:10;;;;;;;2.13;1.93;;;18.30;99.90;17.90;100898;;;;579592;244;24046;-79
2023/06/13 03:50:38;;;;;;;2.33;2.13;;;18.20;99.90;18.70;100900;;;;579545;244;24072;-78
2023/06/13 03:53:06;;;;;;;3.17;2.73;;;19.10;99.90;19.60;100908;;;;579364;244;24072;-79
2023/06/13 03:55:34;;;;;;;3.80;2.20;;;20.00;97.20;20.20;100903;;;;578942;244;23089;-78
2023/06/13 03:58:02;;;;;;;3.53;2.47;;;20.70;93.40;20.80;100910;;;;578907;244;24070;-78
2023/06/13 04:00:33;;;;;;;9.67;2.30;;;21.30;90.90;21.80;100915;;;;579069;244;24090;-79
2023/06/13 04:03:00;;;;;;;2.60;2.20;;;22.20;84.40;22.50;100917;;;;586036;244;24177;-79
2023/06/13 04:05:26;;;;;;;4.00;2.50;;;23.00;76.50;22.90;100912;;;;578801;244;24084;-80
2023/06/13 04:07:54;;;;;;;5.73;2.10;;;23.50;72.60;23.40;100907;;;;578897;244;24121;-79
2023/06/13 04:10:21;;;;;;;3.37;2.30;;;24.00;68.10;23.80;100902;;;;579028;244;24115;-79
2023/06/13 04:12:49;;;;;;;3.23;1.97;;;24.50;66.00;24.30;100911;;;;579015;244;24141;-79
2023/06/13 04:15:17;;;;;;;2.33;1.80;;;24.90;63.20;24.70;100910;;;;579003;244;24080;-79
2023/06/13 04:17:45;;;;;;;4.13;2.37;;;25.30;61.60;25.20;100913;;;;579016;244;23123;-79
2023/06/13 04:20:17;;;;;;;4.27;2.60;;;25.90;59.70;25.50;100913;;;;579010;244;23070;-79
2023/06/13 04:22:44;;;;;;;2.70;2.43;;;26.30;58.90;25.90;100908;;;;578902;244;23071;-79
2023/06/13 04:25:12;;;;;;;3.30;2.20;;;26.70;57.90;26.20;100917;;;;573608;244;46003;-78
2023/06/13 04:27:40;;;;;;;3.73;2.27;;;27.00;55.70;25.70;100920;;;;578579;244;23070;-81
2023/06/13 04:30:08;;;;;;;5.40;2.73;;;26.80;55.00;24.80;100919;;;;578723;244;24057;-80
2023/06/13 04:32:39;;;;;;;6.30;2.53;;;25.90;55.20;23.90;100915;;;;578529;244;23104;-80
2023/06/13 04:35:06;;;;;;;3.90;2.43;;;25.10;56.70;23.10;100912;;;;578115;244;23082;-79
2023/06/13 04:37:31;;;;;;;5.77;2.40;;;24.30;57.90;22.50;100922;;;;578556;244;24051;-80
2023/06/13 04:39:59;;;;;;;6.17;2.60;;;23.60;59.20;21.80;100918;;;;579003;244;23117;-79
2023/06/13 04:42:28;;;;;;;2.70;2.13;;;22.30;62.60;21.40;100922;;;;579072;244;24089;-80
2023/06/13 04:45:00;;;;;;;6.23;2.00;;;22.10;63.70;21.30;100928;;;;579396;242;24083;-79
2023/06/13 04:47:28;;;;;;;4.07;2.63;;;22.00;63.50;21.20;100923;;;;580079;243;24094;-78
2023/06/13 04:49:58;;;;;;;2.33;2.07;;;22.00;64.60;21.50;100930;;;;579384;244;24110;-78
2023/06/13 04:52:23;;;;;;;2.90;2.53;;;22.40;65.10;21.70;100928;;;;579764;244;24058;-79
2023/06/13 04:54:51;;;;;;;3.07;2.40;;;22.60;64.70;21.90;100929;;;;579603;244;24054;-78
2023/06/13 04:57:18;;;;;;;2.87;1.97;;;22.60;64.60;22.30;100928;;;;579066;244;24094;-79
2023/06/13 04:59:46;;;;;;;2.53;2.33;;;22.90;64.20;22.60;100924;;;;579268;244;24089;-78
2023/06/13 05:02:14;;;;;;;3.03;2.20;;;23.30;62.90;23.20;100926;;;;579130;244;24042;-78
2023/06/13 05:04:42;;;;;;;3.57;2.07;;;23.80;62.10;23.90;100933;;;;578749;244;24140;-79
2023/06/13 05:07:09;;;;;;;2.13;2.03;;;24.60;60.20;24.50;100932;;;;578936;244;24102;-79
2023/06/13 05:09:37;;;;;;;4.10;2.20;;;25.40;58.80;25.30;100938;;;;574361;244;35113;-78
2023/06/13 05:12:08;;;;;;;2.57;2.00;;;26.10;57.20;25.80;100951;;;;579326;244;23070;-79
2023/06/13 05:14:37;;;;;;;3.47;2.67;;;26.80;55.00;25.60;100948;;;;578595;244;24084;-76
2023/06/13 05:17:05;;;;;;;2.03;1.80;;;27.10;54.50;26.10;100948;;;;579032;244;23171;-78
2023/06/13 05:19:30;;;;;;;5.60;2.20;;;27.10;54.40;26.60;100950;;;;579162;244;23077;-78
2023/06/13 05:22:02;;;;;;;2.00;1.70;;;27.70;53.40;27.30;100953;;;;579078;244;23100;-77
2023/06/13 05:24:26;;;;;;;7.13;1.93;;;28.30;52.60;27.20;100948;;;;578949;244;23102;-78
2023/06/13 05:26:54;;;;;;;1.73;1.63;;;28.40;51.70;27.10;100946;;;;578658;244;23203;-78
2023/06/13 05:29:22;;;;;;;3.63;2.17;;;28.30;51.80;27.60;100955;;;;578647;244;24170;-80
2023/06/13 05:31:50;;;;;;;4.30;2.10;;;28.50;51.20;28.00;100946;;;;578589;244;23075;-78
2023/06/13 05:34:18;;;;;;;4.70;2.07;;;29.00;50.80;29.20;100948;;;;578476;244;24093;-78
2023/06/13 05:36:47;;;;;;;9.13;1.98;;;30.80;48.00;29.90;100956;;;;578668;244;23068;-80
2023/06/13 05:39:15;;;;;;;5.25;2.47;;;30.70;47.20;29.80;100957;;;;578953;244;23121;-79
2023/06/13 05:41:43;;;;;;;2.60;1.77;;;30.70;47.20;29.70;100959;;;;579020;244;23059;-78
2023/06/13 05:44:13;;;;;;;2.50;1.42;;;30.70;46.90;29.50;100956;;;;579032;244;23118;-79
2023/06/13 05:46:42;;;;;;;3.45;1.80;;;30.60;47.00;29.30;100960;;;;579054;244;23153;-79
2023/06/13 05:49:07;;;;;;;1.70;1.60;;;30.40;47.40;29.30;100965;;;;578765;244;24150;-80
2023/06/13 05:51:36;;;;;;;2.25;1.80;;;30.20;47.00;29.60;100962;;;;579066;244;23055;-78
2023/06/13 05:54:07;;;;;;;2.37;1.80;;;30.40;46.60;30.30;100964;;;;579014;244;23235;-79
2023/06/13 05:56:33;;;;;;;3.42;1.95;;;31.00;45.80;30.70;100960;;;;578369;242;23091;-79
2023/06/13 05:58:58;;;;;;;2.30;1.62;;;31.50;45.10;31.20;100966;;;;580097;243;23079;-79
2023/06/13 06:01:29;;;;;;;2.37;1.70;;;32.00;45.30;32.20;100962;;;;579728;244;23055;-79
2023/06/13 06:03:55;;;;;;;3.53;1.60;;;33.80;43.00;33.20;100957;;;;579369;244;23118;-79
2023/06/13 06:06:24;;;;;;;5.75;2.03;;;34.60;42.10;33.90;100962;;;;579434;244;23071;-79
2023/06/13 06:08:52;;;;;;;3.53;2.10;;;35.20;40.90;34.60;100965;;;;578992;244;23106;-79
2023/06/13 06:11:20;;;;;;;4.97;1.80;;;35.20;40.90;35.00;100956;;;;579625;244;23104;-80
2023/06/13 06:13:48;;;;;;;5.18;2.20;;;35.60;41.00;35.90;100971;;;;579568;244;23071;-80
2023/06/13 06:16:16;;;;;;;2.00;1.90;;;36.50;39.90;36.30;100971;;;;579342;244;23099;-80
2023/06/13 06:18:44;;;;;;;2.37;2.17;;;37.00;38.90;36.50;100969;;;;579336;244;23072;-77
2023/06/13 06:21:13;;;;;;;10.93;3.15;;;37.30;38.40;37.10;100971;;;;579300;244;23055;-79
2023/06/13 06:23:42;;;;;;;4.28;2.17;;;37.70;37.80;36.70;100977;;;;579340;244;24105;-79
2023/06/13 06:26:08;;;;;;;4.30;2.20;;;37.60;37.60;36.10;100968;;;;574154;244;35177;-79
2023/06/13 06:28:36;;;;;;;4.97;2.03;;;37.00;37.40;36.20;100977;;;;579054;244;23198;-79
2023/06/13 06:31:05;;;;;;;3.20;2.10;;;37.00;37.70;36.90;100976;;;;578969;244;24116;-79
2023/06/13 06:33:32;;;;;;;2.00;1.90;;;37.30;37.10;36.80;100967;;;;578715;244;23060;-79
2023/06/13 06:36:00;;;;;;;4.55;2.47;;;37.60;37.50;37.10;100990;;;;578637;244;23098;-79
2023/06/13 06:38:28;;;;;;;7.55;2.37;;;37.80;37.40;36.80;100968;;;;578566;244;24132;-79
2023/06/13 06:40:55;;;;;;;4.70;2.42;;;37.60;38.50;36.90;100981;;;;573978;244;35220;-78
2023/06/13 06:43:23;;;;;;;7.40;2.55;;;37.60;37.40;36.40;100989;;;;579024;244;23052;-78
2023/06/13 06:45:51;;;;;;;3.67;2.10;;;37.30;38.00;36.00;100976;;;;573922;244;35271;-79
2023/06/13 06:48:19;;;;;;;4.53;2.00;;;36.90;38.00;35.70;100975;;;;579046;244;23058;-79
2023/06/13 06:50:47;;;;;;;4.07;1.80;;;36.60;38.30;35.90;100984;;;;579030;244;23073;-79
2023/06/13 06:53:15;;;;;;;8.35;2.22;;;36.70;38.60;36.10;100971;;;;579043;244;23058;-80
2023/06/13 06:55:43;;;;;;;3.30;2.05;;;36.80;38.80;35.60;100984;;;;579022;244;23054;-78
2023/06/13 06:58:11;;;;;;;7.25;2.28;;;36.00;39.00;34.90;100974;;;;578892;244;24089;-79
2023/06/13 07:00:41;;;;;;;4.07;2.42;;;35.00;39.60;33.80;100985;;;;578483;244;23112;-78
2023/06/13 07:03:08;;;;;;;1.90;1.80;;;35.00;39.60;33.00;100972;;;;578534;244;23129;-78
2023/06/13 07:05:36;;;;;;;2.72;1.90;;;34.10;40.10;32.30;100976;;;;578663;244;23072;-78
2023/06/13 07:08:04;;;;;;;3.47;2.00;;;33.30;40.90;31.70;100973;;;;578821;242;24076;-77
2023/06/13 07:10:32;;;;;;;5.37;2.25;;;32.70;42.00;31.80;100973;;;;580162;243;23119;-77
2023/06/13 07:13:00;;;;;;;4.68;1.87;;;32.60;42.60;32.30;100977;;;;580010;244;23050;-78
2023/06/13 07:15:28;;;;;;;2.33;2.12;;;32.80;42.40;32.80;100976;;;;579856;244;23128;-78
2023/06/13 07:17:56;;;;;;;5.80;1.90;;;33.70;41.30;33.10;100977;;;;579740;244;23048;-76
2023/06/13 07:20:26;;;;;;;2.97;1.90;;;34.20;40.90;33.80;100980;;;;579583;244;23067;-78
2023/06/13 07:22:53;;;;;;;8.57;2.10;;;34.20;40.80;34.20;100980;;;;579565;244;23076;-78
2023/06/13 07:25:21;;;;;;;1.90;1.80;;;34.70;39.90;34.40;100987;;;;579583;244;23059;-79
2023/06/13 07:27:49;;;;;;;1.95;1.75;;;34.90;39.00;34.40;100982;;;;579293;244;23091;-77
2023/06/13 07:30:17;;;;;;;3.75;1.73;;;35.00;38.90;34.20;100976;;;;578932;244;23083;-78
2023/06/13 07:32:45;;;;;;;3.42;1.87;;;34.90;39.50;33.80;100979;;;;578853;244;24102;-78
2023/06/13 07:35:15;;;;;;;2.42;2.17;;;34.60;39.10;34.30;100979;;;;578924;244;23070;-78
2023/06/13 07:37:41;;;;;;;4.00;1.60;;;34.80;39.20;35.00;100978;;;;578563;244;23145;-78
2023/06/13 07:40:09;;;;;;;2.20;1.50;;;35.60;38.00;35.20;100980;;;;579016;244;24103;-80
2023/06/13 07:42:37;;;;;;;2.08;1.60;;;35.60;37.90;35.10;100986;;;;579381;244;23077;-79
2023/06/13 07:45:06;;;;;;;12.73;2.70;;;36.00;38.00;35.40;100975;;;;579205;244;24125;-78
2023/06/13 07:47:35;;;;;;;15.73;2.37;;;36.00;38.00;35.80;100974;;;;579324;244;23062;-80
2023/06/13 07:50:06;;;;;;;6.97;2.05;;;36.30;38.50;36.40;100976;;;;578869;244;23066;-79
2023/06/13 07:52:31;;;;;;;5.85;2.47;;;36.90;38.30;36.10;100975;;;;582609;244;23065;-78
2023/06/13 07:54:58;;;;;;;5.85;2.10;;;36.90;37.10;34.90;100983;;;;578918;244;24099;-81
2023/06/13 07:57:26;;;;;;;4.07;1.98;;;36.10;37.30;32.70;100976;;;;578957;244;23074;-79
2023/06/13 07:59:55;;;;;;;5.45;2.33;;;34.40;39.80;30.80;100983;;;;578584;244;24057;-78
2023/06/13 08:02:22;;;;;;;14.57;2.97;;;32.80;40.40;29.40;100983;;;;581500;244;23107;-78
2023/06/13 08:04:50;;;;;;;2.97;2.17;;;31.10;42.30;28.20;100979;;;;582032;244;23221;-79
2023/06/13 08:07:19;;;;;;;5.45;2.17;;;29.60;44.50;27.40;100983;;;;578573;244;23060;-79
2023/06/13 08:09:48;;;;;;;6.17;2.27;;;28.50;46.20;26.90;100971;;;;578832;244;24089;-78
2023/06/13 08:12:16;;;;;;;4.83;2.30;;;27.80;48.30;26.10;100978;;;;578633;244;23075;-78
2023/06/13 08:14:44;;;;;;;3.30;1.70;;;27.10;50.30;25.40;100982;;;;579025;244;23071;-78
2023/06/13 08:17:13;;;;;;;8.17;2.30;;;26.40;49.70;24.60;100974;;;;579070;244;24090;-79
2023/06/13 08:19:41;;;;;;;4.87;2.77;;;25.60;50.70;24.10;100978;;;;579326;242;23090;-80
2023/06/13 08:22:09;;;;;;;8.40;2.63;;;24.90;52.50;24.40;100983;;;;580380;243;25209;-79
2023/06/13 08:24:37;;;;;;;3.40;2.20;;;24.90;54.00;24.30;100985;;;;579513;244;23117;-80
2023/06/13 08:27:07;;;;;;;5.93;2.87;;;24.50;54.40;23.90;100977;;;;579334;244;23079;-78
2023/06/13 08:29:34;;;;;;;3.37;1.97;;;24.50;54.40;23.70;100976;;;;579241;244;23084;-78
2023/06/13 08:32:01;;;;;;;4.33;2.13;;;24.40;55.20;23.80;100979;;;;579100;244;23098;-79
2023/06/13 08:34:30;;;;;;;5.60;2.33;;;24.20;55.50;23.60;100976;;;;579190;244;24040;-76
2023/06/13 08:36:59;;;;;;;3.10;2.43;;;24.10;55.40;23.30;100974;;;;579031;244;23109;-78
2023/06/13 08:39:27;;;;;;;3.83;1.40;;;23.90;56.20;22.90;100969;;;;578985;244;24048;-79
2023/06/13 08:41:58;;;;;;;6.33;2.37;;;23.60;56.50;22.80;100967;;;;578842;244;23113;-78
2023/06/13 08:44:26;;;;;;;2.40;1.83;;;23.40;57.30;22.90;100968;;;;578912;244;24083;-78
2023/06/13 08:46:51;;;;;;;5.27;2.63;;;23.40;57.70;22.70;100966;;;;578957;244;24092;-78
2023/06/13 08:49:19;;;;;;;5.67;2.20;;;23.30;57.60;22.40;100964;;;;579241;244;24059;-79
2023/06/13 08:51:48;;;;;;;7.33;3.57;;;22.90;59.30;22.10;100960;;;;579207;244;24042;-77
2023/06/13 08:54:19;;;;;;;3.90;2.67;;;22.60;59.80;21.90;100962;;;;579046;244;24043;-79
2023/06/13 08:56:44;;;;;;;2.77;1.93;;;22.60;59.80;22.10;100955;;;;578680;244;24102;-78
2023/06/13 08:59:21;;;;;;;4.27;1.83;;;22.70;60.00;22.30;100963;;;;578453;244;24063;-79
2023/06/13 09:01:49;;;;;;;4.83;1.97;;;22.80;60.00;22.30;100963;;;;578252;244;24074;-78
2023/06/13 09:04:17;;;;;;;2.77;1.80;;;22.80;60.70;22.30;100956;;;;578486;244;24076;-79
2023/06/13 09:06:45;;;;;;;2.50;2.00;;;22.80;60.10;22.40;100953;;;;578671;244;24080;-79
2023/06/13 09:09:16;;;;;;;3.40;2.20;;;23.00;60.40;22.50;100952;;;;578633;244;24050;-80
2023/06/13 09:11:42;;;;;;;4.10;1.97;;;22.90;60.90;22.30;100956;;;;578511;244;24060;-78
2023/06/13 09:14:11;;;;;;;5.10;1.80;;;22.80;61.60;22.20;100958;;;;578520;244;24087;-78
2023/06/13 09:16:41;;;;;;;2.20;2.00;;;22.80;61.50;22.50;100953;;;;578938;244;23248;-78
2023/06/13 09:19:07;;;;;;;8.10;2.03;;;23.00;61.50;22.60;100967;;;;578390;244;24057;-77
2023/06/13 09:21:36;;;;;;;5.27;1.60;;;23.10;61.30;22.50;100969;;;;578968;244;24112;-78
2023/06/13 09:24:03;;;;;;;3.53;2.33;;;23.10;61.70;22.20;100965;;;;578986;244;24045;-77
2023/06/13 09:26:31;;;;;;;4.67;2.23;;;22.70;63.50;22.10;100953;;;;578735;244;24107;-78
2023/06/13 09:29:00;;;;;;;4.20;2.30;;;22.70;64.30;22.20;100961;;;;578961;244;24046;-79
2023/06/13 09:31:34;;;;;;;10.10;3.43;;;22.70;63.90;22.30;100963;;;;579406;243;24120;-79
2023/06/13 09:34:02;;;;;;;2.60;2.10;;;22.90;65.10;22.40;100953;;;;579747;243;24097;-78
2023/06/13 09:36:30;;;;;;;5.97;2.90;;;23.10;64.70;22.60;100950;;;;579702;244;24050;-78
2023/06/13 09:38:58;;;;;;;6.70;1.90;;;23.10;64.70;23.10;100946;;;;579381;244;24079;-79
2023/06/13 09:41:30;;;;;;;6.20;1.80;;;23.50;63.70;24.50;100948;;;;579581;244;24049;-79
2023/06/13 09:43:54;;;;;;;2.93;2.00;;;24.80;62.00;25.30;100949;;;;578804;244;23071;-80
2023/06/13 09:46:24;;;;;;;3.87;2.63;;;25.80;59.00;25.10;100946;;;;579584;244;24106;-79
2023/06/13 09:48:50;;;;;;;2.77;2.00;;;25.90;58.60;24.80;100947;;;;579160;244;23089;-80
2023/06/13 09:51:18;;;;;;;4.40;2.07;;;25.70;58.70;24.40;100953;;;;579328;244;23067;-78
2023/06/13 09:53:49;;;;;;;4.80;1.80;;;25.30;59.20;24.00;100940;;;;579344;244;23070;-78
2023/06/13 09:56:14;;;;;;;4.57;2.20;;;24.80;60.30;23.40;100934;;;;579136;244;24105;-79
2023/06/13 09:58:45;;;;;;;10.17;3.10;;;24.30;61.50;23.10;100939;;;;578838;244;23209;-78
2023/06/13 10:01:20;;;;;;;4.13;2.77;;;23.50;64.20;22.70;100941;;;;578936;244;23078;-80
2023/06/13 10:03:38;;;;;;;3.10;1.90;;;23.40;64.10;22.50;100945;;;;579314;244;24098;-79
2023/06/13 10:06:07;;;;;;;4.43;2.17;;;22.80;66.80;22.10;100946;;;;578977;244;24132;-79
2023/06/13 10:08:36;;;;;;;9.73;2.07;;;22.50;68.20;21.90;100930;;;;578692;244;24055;-78
2023/06/13 10:11:16;;;;;;;6.03;1.90;;;22.50;68.20;21.80;100932;;;;578709;244;24039;-77
2023/06/13 10:13:56;;;;;;;9.20;2.23;;;22.40;69.30;21.50;100926;;;;578567;244;24094;-78
2023/06/13 10:16:23;;;;;;;5.20;2.27;;;22.10;70.20;21.60;100934;;;;578360;244;24132;-80
2023/06/13 10:18:51;;;;;;;3.67;2.07;;;22.10;70.80;21.50;100924;;;;579075;244;24090;-78
2023/06/13 10:21:19;;;;;;;8.47;2.40;;;22.20;70.50;21.60;100927;;;;578928;244;24052;-78
2023/06/13 10:23:49;;;;;;;2.57;2.37;;;22.20;70.50;21.80;100922;;;;581756;244;24141;-79
2023/06/13 10:26:15;;;;;;;5.63;2.37;;;22.40;69.50;22.00;100928;;;;578900;244;24084;-78
2023/06/13 10:28:52;;;;;;;6.23;1.80;;;22.50;69.50;22.20;100935;;;;577976;244;24106;-78
2023/06/13 10:31:26;;;;;;;4.63;2.00;;;23.00;68.00;22.50;100937;;;;579218;244;24038;-79
2023/06/13 10:34:16;;;;;;;5.63;2.27;;;23.00;68.00;22.60;100935;;;;578321;244;24045;-78
2023/06/13 10:37:00;;;;;;;5.93;2.77;;;23.20;68.40;22.70;100935;;;;571888;244;24074;-79
2023/06/13 10:40:07;;;;;;;4.00;2.07;;;23.30;68.50;23.10;100933;;;;570842;244;24088;-78
2023/06/13 10:42:37;;;;;;;4.23;2.70;;;23.60;68.40;23.20;100924;;;;578743;244;24069;-78
2023/06/13 10:45:14;;;;;;;3.27;2.30;;;23.90;66.90;23.30;100930;;;;580100;243;23121;-78
2023/06/13 10:47:42;;;;;;;5.60;2.40;;;23.90;67.60;23.60;100929;;;;579944;244;24083;-79
2023/06/13 10:50:10;;;;;;;4.73;2.10;;;24.10;68.10;23.80;100929;;;;580003;244;24067;-78
2023/06/13 10:52:38;;;;;;;9.77;2.70;;;24.30;67.80;24.00;100923;;;;578155;244;35093;-79
2023/06/13 10:55:06;;;;;;;9.47;2.90;;;24.50;68.10;24.30;100925;;;;579488;244;24135;-78
2023/06/13 10:57:52;;;;;;;7.17;2.40;;;24.80;66.90;24.20;100926;;;;579675;244;23080;-78
2023/06/13 11:00:27;;;;;;;3.57;2.70;;;24.70;66.70;24.00;100912;;;;579119;244;23087;-79
2023/06/13 11:02:58;;;;;;;8.70;2.50;;;24.60;66.90;24.00;100913;;;;579026;244;24051;-78
2023/06/13 11:05:26;;;;;;;2.70;2.50;;;24.60;66.80;23.90;100911;;;;578595;244;24063;-80
2023/06/13 11:07:58;;;;;;;5.23;2.70;;;24.50;67.10;23.80;100901;;;;578446;244;24095;-81
2023/06/13 11:10:22;;;;;;;3.57;2.80;;;24.40;66.50;23.80;100900;;;;578969;244;24056;-78
2023/06/13 11:12:53;;;;;;;8.17;2.27;;;24.40;66.90;23.80;100912;;;;588030;244;23075;-79
2023/06/13 11:15:24;;;;;;;3.70;2.27;;;24.40;66.20;23.60;100905;;;;578977;244;24103;-80
2023/06/13 11:18:01;;;;;;;5.70;2.67;;;24.20;67.30;23.40;100902;;;;579024;244;24064;-79